PWSweather.com
Personal Weather Stations
Station Observations
MART18
Seleziona Stato..., MartinsicuroIT italia

Seleziona Stato...MartinsicuroIT italia

Lat: 42.885169, Lon: 13.918447300000025

Elevation: 3

Station Type: Davis vantage vp2

branciuno67@gmail.com

High Low Average
Temperature 80.4°F26.9°C 67.3°F19.6°C 74.5°F23.6°C
Dew Point 65.8°F18.8°C 51.4°F10.8°C 58.1°F14.5°C
Winds 12.1 mph 19.5 kmh 0.9 mph 1.4 kmh 6.0 mph SSW9.7 kmh SSW
Wind Gusts 17.9 mph28.8 kmh 2.9 mph4.7 kmh 12.0 mph19.3 kmh
Humidity 64% 43% 57%
Pressure 30.00 in1015.9 mb 29.95 in1014.2 mb -
Precipitation 0.00 in0.0 mm - -
Hour Temp Dew Point Humidity Winds Wind Gusts Pressure Precip Precip Rate Daily Precip Total
12:02 AM 67.5°F19.7°C 52.7°F11.5°C 59% 4.9 mph WNW7.9 kmh WNW 11.0 mph17.7 kmh 29.97 in1014.9 mb 0.00 in0.0 mm 0.00 in0.0 mm 0.00 in0.0 mm
12:07 AM 67.5°F19.7°C 52.2°F11.2°C 58% 4.9 mph W7.9 kmh W 10.1 mph16.3 kmh 29.97 in1014.9 mb 0.00 in0.0 mm 0.00 in0.0 mm 0.00 in0.0 mm
12:12 AM 67.5°F19.7°C 52.2°F11.2°C 58% 4.9 mph WNW7.9 kmh WNW 10.1 mph16.3 kmh 29.97 in1014.9 mb 0.00 in0.0 mm 0.00 in0.0 mm 0.00 in0.0 mm
12:17 AM 67.5°F19.7°C 52.2°F11.2°C 58% 4.9 mph WNW7.9 kmh WNW 11.0 mph17.7 kmh 29.97 in1014.9 mb 0.00 in0.0 mm 0.00 in0.0 mm 0.00 in0.0 mm
12:22 AM 67.5°F19.7°C 52.2°F11.2°C 58% 4.9 mph WNW7.9 kmh WNW 10.1 mph16.3 kmh 29.97 in1014.9 mb 0.00 in0.0 mm 0.00 in0.0 mm 0.00 in0.0 mm
12:27 AM 67.5°F19.7°C 52.2°F11.2°C 58% 4.9 mph NW7.9 kmh NW 11.0 mph17.7 kmh 29.97 in1014.9 mb 0.00 in0.0 mm 0.00 in0.0 mm 0.00 in0.0 mm
12:32 AM 67.5°F19.7°C 52.2°F11.2°C 58% 4.9 mph NW7.9 kmh NW 10.1 mph16.3 kmh 29.97 in1014.9 mb 0.00 in0.0 mm 0.00 in0.0 mm 0.00 in0.0 mm
12:37 AM 67.5°F19.7°C 52.2°F11.2°C 58% 6.0 mph NW9.7 kmh NW 11.0 mph17.7 kmh 29.96 in1014.6 mb 0.00 in0.0 mm 0.00 in0.0 mm 0.00 in0.0 mm
12:42 AM 67.5°F19.7°C 52.2°F11.2°C 58% 6.0 mph W9.7 kmh W 10.1 mph16.3 kmh 29.96 in1014.6 mb 0.00 in0.0 mm 0.00 in0.0 mm 0.00 in0.0 mm
12:47 AM 67.5°F19.7°C 52.2°F11.2°C 58% 4.9 mph W7.9 kmh W 10.1 mph16.3 kmh 29.96 in1014.6 mb 0.00 in0.0 mm 0.00 in0.0 mm 0.00 in0.0 mm
12:52 AM 67.5°F19.7°C 51.6°F10.9°C 57% 4.9 mph WNW7.9 kmh WNW 10.1 mph16.3 kmh 29.96 in1014.6 mb 0.00 in0.0 mm 0.00 in0.0 mm 0.00 in0.0 mm
12:57 AM 67.6°F19.8°C 51.8°F11.0°C 57% 4.9 mph W7.9 kmh W 8.9 mph14.3 kmh 29.97 in1014.9 mb 0.00 in0.0 mm 0.00 in0.0 mm 0.00 in0.0 mm
01:02 AM 67.6°F19.8°C 51.8°F11.0°C 57% 4.9 mph W7.9 kmh W 8.9 mph14.3 kmh 29.96 in1014.6 mb 0.00 in0.0 mm 0.00 in0.0 mm 0.00 in0.0 mm
01:07 AM 67.6°F19.8°C 51.4°F10.8°C 56% 6.0 mph WSW9.7 kmh WSW 12.1 mph19.5 kmh 29.97 in1014.9 mb 0.00 in0.0 mm 0.00 in0.0 mm 0.00 in0.0 mm
01:12 AM 67.6°F19.8°C 51.8°F11.0°C 57% 6.9 mph WNW11.1 kmh WNW 13.0 mph20.9 kmh 29.97 in1014.9 mb 0.00 in0.0 mm 0.00 in0.0 mm 0.00 in0.0 mm
01:17 AM 67.6°F19.8°C 51.8°F11.0°C 57% 6.9 mph WNW11.1 kmh WNW 12.1 mph19.5 kmh 29.97 in1014.9 mb 0.00 in0.0 mm 0.00 in0.0 mm 0.00 in0.0 mm
01:22 AM 67.5°F19.7°C 51.6°F10.9°C 57% 6.0 mph NW9.7 kmh NW 8.9 mph14.3 kmh 29.96 in1014.6 mb 0.00 in0.0 mm 0.00 in0.0 mm 0.00 in0.0 mm
01:27 AM 67.5°F19.7°C 51.6°F10.9°C 57% 4.9 mph WNW7.9 kmh WNW 10.1 mph16.3 kmh 29.96 in1014.6 mb 0.00 in0.0 mm 0.00 in0.0 mm 0.00 in0.0 mm
01:32 AM 67.3°F19.6°C 51.4°F10.8°C 57% 6.0 mph W9.7 kmh W 12.1 mph19.5 kmh 29.96 in1014.6 mb 0.00 in0.0 mm 0.00 in0.0 mm 0.00 in0.0 mm
01:37 AM 67.5°F19.7°C 51.6°F10.9°C 57% 6.0 mph WNW9.7 kmh WNW 12.1 mph19.5 kmh 29.96 in1014.6 mb 0.00 in0.0 mm 0.00 in0.0 mm 0.00 in0.0 mm
01:42 AM 67.5°F19.7°C 51.6°F10.9°C 57% 6.0 mph WNW9.7 kmh WNW 10.1 mph16.3 kmh 29.96 in1014.6 mb 0.00 in0.0 mm 0.00 in0.0 mm 0.00 in0.0 mm
01:47 AM 67.6°F19.8°C 51.4°F10.8°C 56% 6.0 mph W9.7 kmh W 13.0 mph20.9 kmh 29.97 in1014.9 mb 0.00 in0.0 mm 0.00 in0.0 mm 0.00 in0.0 mm
01:52 AM 67.6°F19.8°C 51.4°F10.8°C 56% 6.0 mph W9.7 kmh W 13.0 mph20.9 kmh 29.96 in1014.6 mb 0.00 in0.0 mm 0.00 in0.0 mm 0.00 in0.0 mm
01:57 AM 67.6°F19.8°C 51.4°F10.8°C 56% 6.9 mph WSW11.1 kmh WSW 13.0 mph20.9 kmh 29.96 in1014.6 mb 0.00 in0.0 mm 0.00 in0.0 mm 0.00 in0.0 mm
02:02 AM 67.6°F19.8°C 51.8°F11.0°C 57% 8.1 mph W13.0 kmh W 13.0 mph20.9 kmh 29.96 in1014.6 mb 0.00 in0.0 mm 0.00 in0.0 mm 0.00 in0.0 mm
02:07 AM 67.6°F19.8°C 51.8°F11.0°C 57% 6.9 mph NW11.1 kmh NW 12.1 mph19.5 kmh 29.96 in1014.6 mb 0.00 in0.0 mm 0.00 in0.0 mm 0.00 in0.0 mm
02:12 AM 67.8°F19.9°C 52.0°F11.1°C 57% 6.9 mph WNW11.1 kmh WNW 13.0 mph20.9 kmh 29.96 in1014.6 mb 0.00 in0.0 mm 0.00 in0.0 mm 0.00 in0.0 mm
02:17 AM 67.8°F19.9°C 52.0°F11.1°C 57% 6.9 mph WNW11.1 kmh WNW 14.1 mph22.7 kmh 29.96 in1014.6 mb 0.00 in0.0 mm 0.00 in0.0 mm 0.00 in0.0 mm
02:22 AM 67.8°F19.9°C 52.0°F11.1°C 57% 6.9 mph W11.1 kmh W 12.1 mph19.5 kmh 29.96 in1014.6 mb 0.00 in0.0 mm 0.00 in0.0 mm 0.00 in0.0 mm
02:27 AM 67.8°F19.9°C 52.0°F11.1°C 57% 6.9 mph W11.1 kmh W 12.1 mph19.5 kmh 29.96 in1014.6 mb 0.00 in0.0 mm 0.00 in0.0 mm 0.00 in0.0 mm
02:32 AM 67.8°F19.9°C 52.0°F11.1°C 57% 6.0 mph WNW9.7 kmh WNW 13.0 mph20.9 kmh 29.96 in1014.6 mb 0.00 in0.0 mm 0.00 in0.0 mm 0.00 in0.0 mm
02:37 AM 67.8°F19.9°C 52.0°F11.1°C 57% 6.0 mph W9.7 kmh W 13.0 mph20.9 kmh 29.96 in1014.6 mb 0.00 in0.0 mm 0.00 in0.0 mm 0.00 in0.0 mm
02:42 AM 67.8°F19.9°C 52.0°F11.1°C 57% 8.1 mph W13.0 kmh W 14.1 mph22.7 kmh 29.96 in1014.6 mb 0.00 in0.0 mm 0.00 in0.0 mm 0.00 in0.0 mm
02:47 AM 67.8°F19.9°C 52.0°F11.1°C 57% 8.1 mph WNW13.0 kmh WNW 12.1 mph19.5 kmh 29.96 in1014.6 mb 0.00 in0.0 mm 0.00 in0.0 mm 0.00 in0.0 mm
02:52 AM 68.0°F20.0°C 52.2°F11.2°C 57% 6.0 mph NW9.7 kmh NW 13.0 mph20.9 kmh 29.96 in1014.6 mb 0.00 in0.0 mm 0.00 in0.0 mm 0.00 in0.0 mm
02:57 AM 68.2°F20.1°C 51.8°F11.0°C 56% 6.0 mph W9.7 kmh W 13.0 mph20.9 kmh 29.96 in1014.6 mb 0.00 in0.0 mm 0.00 in0.0 mm 0.00 in0.0 mm
03:02 AM 68.2°F20.1°C 51.8°F11.0°C 56% 6.0 mph NW9.7 kmh NW 12.1 mph19.5 kmh 29.96 in1014.6 mb 0.00 in0.0 mm 0.00 in0.0 mm 0.00 in0.0 mm
03:07 AM 68.2°F20.1°C 51.8°F11.0°C 56% 4.9 mph NW7.9 kmh NW 10.1 mph16.3 kmh 29.96 in1014.6 mb 0.00 in0.0 mm 0.00 in0.0 mm 0.00 in0.0 mm
03:12 AM 68.2°F20.1°C 52.3°F11.3°C 57% 4.9 mph NW7.9 kmh NW 12.0 mph19.3 kmh 29.96 in1014.6 mb 0.00 in0.0 mm 0.00 in0.0 mm 0.00 in0.0 mm
03:17 AM 68.4°F20.2°C 52.0°F11.1°C 56% 4.9 mph NW7.9 kmh NW 11.0 mph17.7 kmh 29.95 in1014.2 mb 0.00 in0.0 mm 0.00 in0.0 mm 0.00 in0.0 mm
03:22 AM 68.5°F20.3°C 52.2°F11.2°C 56% 4.9 mph WNW7.9 kmh WNW 8.1 mph13.0 kmh 29.95 in1014.2 mb 0.00 in0.0 mm 0.00 in0.0 mm 0.00 in0.0 mm
03:27 AM 68.5°F20.3°C 52.7°F11.5°C 57% 4.0 mph W6.4 kmh W 9.0 mph14.5 kmh 29.95 in1014.2 mb 0.00 in0.0 mm 0.00 in0.0 mm 0.00 in0.0 mm
03:32 AM 68.5°F20.3°C 52.7°F11.5°C 57% 4.0 mph W6.4 kmh W 8.9 mph14.3 kmh 29.95 in1014.2 mb 0.00 in0.0 mm 0.00 in0.0 mm 0.00 in0.0 mm
03:37 AM 68.4°F20.2°C 52.5°F11.4°C 57% 4.0 mph WNW6.4 kmh WNW 6.9 mph11.1 kmh 29.95 in1014.2 mb 0.00 in0.0 mm 0.00 in0.0 mm 0.00 in0.0 mm
03:42 AM 68.2°F20.1°C 52.3°F11.3°C 57% 4.0 mph WNW6.4 kmh WNW 8.9 mph14.3 kmh 29.96 in1014.6 mb 0.00 in0.0 mm 0.00 in0.0 mm 0.00 in0.0 mm
03:47 AM 68.2°F20.1°C 52.3°F11.3°C 57% 4.0 mph W6.4 kmh W 8.1 mph13.0 kmh 29.96 in1014.6 mb 0.00 in0.0 mm 0.00 in0.0 mm 0.00 in0.0 mm
03:52 AM 68.2°F20.1°C 52.3°F11.3°C 57% 4.9 mph NW7.9 kmh NW 10.1 mph16.3 kmh 29.96 in1014.6 mb 0.00 in0.0 mm 0.00 in0.0 mm 0.00 in0.0 mm
03:57 AM 68.0°F20.0°C 52.2°F11.2°C 57% 4.9 mph W7.9 kmh W 14.1 mph22.7 kmh 29.95 in1014.2 mb 0.00 in0.0 mm 0.00 in0.0 mm 0.00 in0.0 mm
04:02 AM 68.0°F20.0°C 51.8°F11.0°C 56% 4.9 mph W7.9 kmh W 12.1 mph19.5 kmh 29.95 in1014.2 mb 0.00 in0.0 mm 0.00 in0.0 mm 0.00 in0.0 mm
04:07 AM 68.2°F20.1°C 51.8°F11.0°C 56% 6.9 mph WSW11.1 kmh WSW 13.0 mph20.9 kmh 29.95 in1014.2 mb 0.00 in0.0 mm 0.00 in0.0 mm 0.00 in0.0 mm
04:12 AM 68.0°F20.0°C 52.2°F11.2°C 57% 8.1 mph WNW13.0 kmh WNW 11.0 mph17.7 kmh 29.95 in1014.2 mb 0.00 in0.0 mm 0.00 in0.0 mm 0.00 in0.0 mm
04:17 AM 68.0°F20.0°C 52.2°F11.2°C 57% 6.9 mph W11.1 kmh W 11.0 mph17.7 kmh 29.95 in1014.2 mb 0.00 in0.0 mm 0.00 in0.0 mm 0.00 in0.0 mm
04:22 AM 68.0°F20.0°C 52.2°F11.2°C 57% 6.0 mph WNW9.7 kmh WNW 11.0 mph17.7 kmh 29.96 in1014.6 mb 0.00 in0.0 mm 0.00 in0.0 mm 0.00 in0.0 mm
04:27 AM 68.2°F20.1°C 52.3°F11.3°C 57% 6.0 mph W9.7 kmh W 13.0 mph20.9 kmh 29.96 in1014.6 mb 0.00 in0.0 mm 0.00 in0.0 mm 0.00 in0.0 mm
04:32 AM 68.2°F20.1°C 52.3°F11.3°C 57% 6.0 mph WNW9.7 kmh WNW 12.1 mph19.5 kmh 29.96 in1014.6 mb 0.00 in0.0 mm 0.00 in0.0 mm 0.00 in0.0 mm
04:37 AM 68.2°F20.1°C 52.3°F11.3°C 57% 4.9 mph WNW7.9 kmh WNW 8.9 mph14.3 kmh 29.96 in1014.6 mb 0.00 in0.0 mm 0.00 in0.0 mm 0.00 in0.0 mm
04:42 AM 68.2°F20.1°C 52.3°F11.3°C 57% 4.0 mph WNW6.4 kmh WNW 10.1 mph16.3 kmh 29.96 in1014.6 mb 0.00 in0.0 mm 0.00 in0.0 mm 0.00 in0.0 mm
04:47 AM 68.0°F20.0°C 52.2°F11.2°C 57% 4.9 mph NW7.9 kmh NW 10.1 mph16.3 kmh 29.96 in1014.6 mb 0.00 in0.0 mm 0.00 in0.0 mm 0.00 in0.0 mm
04:52 AM 67.8°F19.9°C 52.0°F11.1°C 57% 4.9 mph WNW7.9 kmh WNW 13.0 mph20.9 kmh 29.96 in1014.6 mb 0.00 in0.0 mm 0.00 in0.0 mm 0.00 in0.0 mm
04:57 AM 68.0°F20.0°C 52.2°F11.2°C 57% 6.0 mph WNW9.7 kmh WNW 11.0 mph17.7 kmh 29.96 in1014.6 mb 0.00 in0.0 mm 0.00 in0.0 mm 0.00 in0.0 mm
05:02 AM 68.2°F20.1°C 52.3°F11.3°C 57% 6.9 mph W11.1 kmh W 14.1 mph22.7 kmh 29.96 in1014.6 mb 0.00 in0.0 mm 0.00 in0.0 mm 0.00 in0.0 mm
05:07 AM 68.2°F20.1°C 52.3°F11.3°C 57% 6.9 mph WNW11.1 kmh WNW 11.0 mph17.7 kmh 29.96 in1014.6 mb 0.00 in0.0 mm 0.00 in0.0 mm 0.00 in0.0 mm
05:12 AM 68.2°F20.1°C 52.9°F11.6°C 58% 6.0 mph NW9.7 kmh NW 12.0 mph19.3 kmh 29.96 in1014.6 mb 0.00 in0.0 mm 0.00 in0.0 mm 0.00 in0.0 mm
05:17 AM 68.2°F20.1°C 52.9°F11.6°C 58% 4.9 mph W7.9 kmh W 8.9 mph14.3 kmh 29.96 in1014.6 mb 0.00 in0.0 mm 0.00 in0.0 mm 0.00 in0.0 mm
05:22 AM 68.0°F20.0°C 52.7°F11.5°C 58% 4.9 mph W7.9 kmh W 8.9 mph14.3 kmh 29.96 in1014.6 mb 0.00 in0.0 mm 0.00 in0.0 mm 0.00 in0.0 mm
05:27 AM 67.8°F19.9°C 52.5°F11.4°C 58% 6.0 mph WNW9.7 kmh WNW 14.1 mph22.7 kmh 29.96 in1014.6 mb 0.00 in0.0 mm 0.00 in0.0 mm 0.00 in0.0 mm
05:32 AM 67.8°F19.9°C 52.5°F11.4°C 58% 6.0 mph W9.7 kmh W 11.0 mph17.7 kmh 29.97 in1014.9 mb 0.00 in0.0 mm 0.00 in0.0 mm 0.00 in0.0 mm
05:37 AM 67.8°F19.9°C 52.5°F11.4°C 58% 4.9 mph NW7.9 kmh NW 10.1 mph16.3 kmh 29.97 in1014.9 mb 0.00 in0.0 mm 0.00 in0.0 mm 0.00 in0.0 mm
05:42 AM 67.8°F19.9°C 52.9°F11.6°C 59% 4.9 mph W7.9 kmh W 8.9 mph14.3 kmh 29.97 in1014.9 mb 0.00 in0.0 mm 0.00 in0.0 mm 0.00 in0.0 mm
05:47 AM 68.0°F20.0°C 52.7°F11.5°C 58% 4.9 mph W7.9 kmh W 12.1 mph19.5 kmh 29.97 in1014.9 mb 0.00 in0.0 mm 0.00 in0.0 mm 0.00 in0.0 mm
05:52 AM 68.2°F20.1°C 52.9°F11.6°C 58% 6.9 mph NW11.1 kmh NW 14.1 mph22.7 kmh 29.97 in1014.9 mb 0.00 in0.0 mm 0.00 in0.0 mm 0.00 in0.0 mm
05:57 AM 68.2°F20.1°C 52.9°F11.6°C 58% 6.9 mph WNW11.1 kmh WNW 12.1 mph19.5 kmh 29.97 in1014.9 mb 0.00 in0.0 mm 0.00 in0.0 mm 0.00 in0.0 mm
06:02 AM 68.2°F20.1°C 53.2°F11.8°C 59% 6.0 mph W9.7 kmh W 12.1 mph19.5 kmh 29.97 in1014.9 mb 0.00 in0.0 mm 0.00 in0.0 mm 0.00 in0.0 mm
06:07 AM 68.4°F20.2°C 53.4°F11.9°C 59% 6.9 mph W11.1 kmh W 14.1 mph22.7 kmh 29.97 in1014.9 mb 0.00 in0.0 mm 0.00 in0.0 mm 0.00 in0.0 mm
06:12 AM 68.4°F20.2°C 53.4°F11.9°C 59% 6.9 mph W11.1 kmh W 11.0 mph17.7 kmh 29.97 in1014.9 mb 0.00 in0.0 mm 0.00 in0.0 mm 0.00 in0.0 mm
06:17 AM 68.5°F20.3°C 53.6°F12.0°C 59% 6.0 mph WNW9.7 kmh WNW 12.1 mph19.5 kmh 29.97 in1014.9 mb 0.00 in0.0 mm 0.00 in0.0 mm 0.00 in0.0 mm
06:22 AM 68.7°F20.4°C 53.8°F12.1°C 59% 6.0 mph NW9.7 kmh NW 13.0 mph20.9 kmh 29.98 in1015.2 mb 0.00 in0.0 mm 0.00 in0.0 mm 0.00 in0.0 mm
06:27 AM 69.1°F20.6°C 54.1°F12.3°C 59% 4.9 mph NW7.9 kmh NW 11.0 mph17.7 kmh 29.98 in1015.2 mb 0.00 in0.0 mm 0.00 in0.0 mm 0.00 in0.0 mm
06:32 AM 69.3°F20.7°C 54.3°F12.4°C 59% 6.0 mph W9.7 kmh W 12.1 mph19.5 kmh 29.98 in1015.2 mb 0.00 in0.0 mm 0.00 in0.0 mm 0.00 in0.0 mm
06:37 AM 69.4°F20.8°C 54.5°F12.5°C 59% 6.0 mph NW9.7 kmh NW 13.0 mph20.9 kmh 29.98 in1015.2 mb 0.00 in0.0 mm 0.00 in0.0 mm 0.00 in0.0 mm
06:42 AM 69.6°F20.9°C 54.7°F12.6°C 59% 6.0 mph WNW9.7 kmh WNW 11.0 mph17.7 kmh 29.98 in1015.2 mb 0.00 in0.0 mm 0.00 in0.0 mm 0.00 in0.0 mm
06:47 AM 69.8°F21.0°C 54.9°F12.7°C 59% 6.0 mph NW9.7 kmh NW 10.1 mph16.3 kmh 29.98 in1015.2 mb 0.00 in0.0 mm 0.00 in0.0 mm 0.00 in0.0 mm
06:52 AM 70.0°F21.1°C 54.5°F12.5°C 58% 4.9 mph NW7.9 kmh NW 8.9 mph14.3 kmh 29.98 in1015.2 mb 0.00 in0.0 mm 0.00 in0.0 mm 0.00 in0.0 mm
06:57 AM 70.3°F21.3°C 55.4°F13.0°C 59% 4.9 mph W7.9 kmh W 8.9 mph14.3 kmh 29.98 in1015.2 mb 0.00 in0.0 mm 0.00 in0.0 mm 0.00 in0.0 mm
07:02 AM 70.5°F21.4°C 55.6°F13.1°C 59% 6.0 mph W9.7 kmh W 14.1 mph22.7 kmh 29.98 in1015.2 mb 0.00 in0.0 mm 0.00 in0.0 mm 0.00 in0.0 mm
07:08 AM 71.1°F21.7°C 55.9°F13.3°C 59% 6.9 mph W11.1 kmh W 12.1 mph19.5 kmh 29.98 in1015.2 mb 0.00 in0.0 mm 0.00 in0.0 mm 0.00 in0.0 mm
07:13 AM 71.2°F21.8°C 56.1°F13.4°C 59% 6.0 mph W9.7 kmh W 11.0 mph17.7 kmh 29.98 in1015.2 mb 0.00 in0.0 mm 0.00 in0.0 mm 0.00 in0.0 mm
07:18 AM 71.6°F22.0°C 56.5°F13.6°C 59% 4.9 mph NW7.9 kmh NW 12.1 mph19.5 kmh 29.98 in1015.2 mb 0.00 in0.0 mm 0.00 in0.0 mm 0.00 in0.0 mm
07:23 AM 72.0°F22.2°C 56.8°F13.8°C 59% 4.9 mph W7.9 kmh W 12.1 mph19.5 kmh 29.98 in1015.2 mb 0.00 in0.0 mm 0.00 in0.0 mm 0.00 in0.0 mm
07:28 AM 72.0°F22.2°C 56.8°F13.8°C 59% 6.0 mph W9.7 kmh W 14.1 mph22.7 kmh 29.98 in1015.2 mb 0.00 in0.0 mm 0.00 in0.0 mm 0.00 in0.0 mm
07:33 AM 72.1°F22.3°C 57.0°F13.9°C 59% 6.0 mph W9.7 kmh W 12.1 mph19.5 kmh 29.98 in1015.2 mb 0.00 in0.0 mm 0.00 in0.0 mm 0.00 in0.0 mm
07:38 AM 72.3°F22.4°C 57.2°F14.0°C 59% 6.9 mph WNW11.1 kmh WNW 12.1 mph19.5 kmh 29.98 in1015.2 mb 0.00 in0.0 mm 0.00 in0.0 mm 0.00 in0.0 mm
07:43 AM 72.7°F22.6°C 57.6°F14.2°C 59% 6.0 mph W9.7 kmh W 14.1 mph22.7 kmh 29.98 in1015.2 mb 0.00 in0.0 mm 0.00 in0.0 mm 0.00 in0.0 mm
07:48 AM 72.9°F22.7°C 57.7°F14.3°C 59% 4.9 mph WNW7.9 kmh WNW 10.1 mph16.3 kmh 29.98 in1015.2 mb 0.00 in0.0 mm 0.00 in0.0 mm 0.00 in0.0 mm
07:53 AM 72.9°F22.7°C 57.7°F14.3°C 59% 4.9 mph WSW7.9 kmh WSW 11.0 mph17.7 kmh 29.98 in1015.2 mb 0.00 in0.0 mm 0.00 in0.0 mm 0.00 in0.0 mm
07:58 AM 73.0°F22.8°C 57.9°F14.4°C 59% 6.0 mph WNW9.7 kmh WNW 11.0 mph17.7 kmh 29.98 in1015.2 mb 0.00 in0.0 mm 0.00 in0.0 mm 0.00 in0.0 mm
08:03 AM 73.4°F23.0°C 58.3°F14.6°C 59% 4.9 mph W7.9 kmh W 11.0 mph17.7 kmh 29.98 in1015.2 mb 0.00 in0.0 mm 0.00 in0.0 mm 0.00 in0.0 mm
08:08 AM 73.8°F23.2°C 59.0°F15.0°C 60% 4.9 mph NW7.9 kmh NW 10.1 mph16.3 kmh 29.98 in1015.2 mb 0.00 in0.0 mm 0.00 in0.0 mm 0.00 in0.0 mm
08:13 AM 73.9°F23.3°C 59.2°F15.1°C 60% 4.9 mph NW7.9 kmh NW 10.1 mph16.3 kmh 29.98 in1015.2 mb 0.00 in0.0 mm 0.00 in0.0 mm 0.00 in0.0 mm
08:18 AM 74.3°F23.5°C 59.5°F15.3°C 60% 4.9 mph W7.9 kmh W 13.0 mph20.9 kmh 29.98 in1015.2 mb 0.00 in0.0 mm 0.00 in0.0 mm 0.00 in0.0 mm
08:23 AM 74.7°F23.7°C 59.9°F15.5°C 60% 4.9 mph WNW7.9 kmh WNW 13.0 mph20.9 kmh 29.98 in1015.2 mb 0.00 in0.0 mm 0.00 in0.0 mm 0.00 in0.0 mm
08:28 AM 75.0°F23.9°C 59.7°F15.4°C 59% 4.9 mph NNW7.9 kmh NNW 10.1 mph16.3 kmh 29.98 in1015.2 mb 0.00 in0.0 mm 0.00 in0.0 mm 0.00 in0.0 mm
08:33 AM 75.6°F24.2°C 60.6°F15.9°C 60% 4.9 mph NW7.9 kmh NW 12.1 mph19.5 kmh 29.99 in1015.6 mb 0.00 in0.0 mm 0.00 in0.0 mm 0.00 in0.0 mm
08:38 AM 75.7°F24.3°C 60.8°F16.0°C 60% 6.0 mph N9.7 kmh N 12.1 mph19.5 kmh 29.99 in1015.6 mb 0.00 in0.0 mm 0.00 in0.0 mm 0.00 in0.0 mm
08:43 AM 76.3°F24.6°C 61.3°F16.3°C 60% 6.0 mph NNW9.7 kmh NNW 11.0 mph17.7 kmh 29.99 in1015.6 mb 0.00 in0.0 mm 0.00 in0.0 mm 0.00 in0.0 mm
08:48 AM 76.1°F24.5°C 60.3°F15.7°C 58% 6.0 mph N9.7 kmh N 14.1 mph22.7 kmh 29.99 in1015.6 mb 0.00 in0.0 mm 0.00 in0.0 mm 0.00 in0.0 mm
08:53 AM 76.3°F24.6°C 61.0°F16.1°C 59% 6.9 mph N11.1 kmh N 11.0 mph17.7 kmh 29.99 in1015.6 mb 0.00 in0.0 mm 0.00 in0.0 mm 0.00 in0.0 mm
08:58 AM 76.5°F24.7°C 60.6°F15.9°C 58% 6.9 mph N11.1 kmh N 13.0 mph20.9 kmh 29.99 in1015.6 mb 0.00 in0.0 mm 0.00 in0.0 mm 0.00 in0.0 mm
09:03 AM 76.5°F24.7°C 60.1°F15.6°C 57% 6.9 mph N11.1 kmh N 15.0 mph24.1 kmh 29.99 in1015.6 mb 0.00 in0.0 mm 0.00 in0.0 mm 0.00 in0.0 mm
09:08 AM 76.5°F24.7°C 59.5°F15.3°C 56% 6.9 mph NNW11.1 kmh NNW 15.0 mph24.1 kmh 29.99 in1015.6 mb 0.00 in0.0 mm 0.00 in0.0 mm 0.00 in0.0 mm
09:13 AM 76.6°F24.8°C 59.2°F15.1°C 55% 6.0 mph N9.7 kmh N 11.0 mph17.7 kmh 29.99 in1015.6 mb 0.00 in0.0 mm 0.00 in0.0 mm 0.00 in0.0 mm
09:18 AM 76.6°F24.8°C 59.7°F15.4°C 56% 6.9 mph N11.1 kmh N 14.1 mph22.7 kmh 29.99 in1015.6 mb 0.00 in0.0 mm 0.00 in0.0 mm 0.00 in0.0 mm
09:23 AM 77.2°F25.1°C 60.3°F15.7°C 56% 6.9 mph N11.1 kmh N 11.0 mph17.7 kmh 30.00 in1015.9 mb 0.00 in0.0 mm 0.00 in0.0 mm 0.00 in0.0 mm
09:28 AM 77.0°F25.0°C 60.1°F15.6°C 56% 6.9 mph NNW11.1 kmh NNW 11.0 mph17.7 kmh 30.00 in1015.9 mb 0.00 in0.0 mm 0.00 in0.0 mm 0.00 in0.0 mm
09:33 AM 77.2°F25.1°C 60.3°F15.7°C 56% 6.9 mph NW11.1 kmh NW 11.0 mph17.7 kmh 29.99 in1015.6 mb 0.00 in0.0 mm 0.00 in0.0 mm 0.00 in0.0 mm
09:38 AM 77.5°F25.3°C 59.5°F15.3°C 54% 6.0 mph N9.7 kmh N 12.1 mph19.5 kmh 29.99 in1015.6 mb 0.00 in0.0 mm 0.00 in0.0 mm 0.00 in0.0 mm
09:43 AM 77.7°F25.4°C 60.8°F16.0°C 56% 6.0 mph NW9.7 kmh NW 13.0 mph20.9 kmh 30.00 in1015.9 mb 0.00 in0.0 mm 0.00 in0.0 mm 0.00 in0.0 mm
09:48 AM 78.1°F25.6°C 60.1°F15.6°C 54% 6.0 mph N9.7 kmh N 12.1 mph19.5 kmh 29.99 in1015.6 mb 0.00 in0.0 mm 0.00 in0.0 mm 0.00 in0.0 mm
09:53 AM 77.9°F25.5°C 60.4°F15.8°C 55% 6.9 mph N11.1 kmh N 13.0 mph20.9 kmh 30.00 in1015.9 mb 0.00 in0.0 mm 0.00 in0.0 mm 0.00 in0.0 mm
09:58 AM 78.3°F25.7°C 60.3°F15.7°C 54% 6.9 mph NNW11.1 kmh NNW 12.1 mph19.5 kmh 30.00 in1015.9 mb 0.00 in0.0 mm 0.00 in0.0 mm 0.00 in0.0 mm
10:03 AM 78.1°F25.6°C 60.1°F15.6°C 54% 6.0 mph NNW9.7 kmh NNW 11.0 mph17.7 kmh 29.99 in1015.6 mb 0.00 in0.0 mm 0.00 in0.0 mm 0.00 in0.0 mm
10:08 AM 78.3°F25.7°C 59.7°F15.4°C 53% 6.9 mph NE11.1 kmh NE 12.1 mph19.5 kmh 29.99 in1015.6 mb 0.00 in0.0 mm 0.00 in0.0 mm 0.00 in0.0 mm
10:13 AM 78.3°F25.7°C 60.3°F15.7°C 54% 6.9 mph NE11.1 kmh NE 13.0 mph20.9 kmh 29.99 in1015.6 mb 0.00 in0.0 mm 0.00 in0.0 mm 0.00 in0.0 mm
10:18 AM 78.3°F25.7°C 60.3°F15.7°C 54% 6.9 mph NNE11.1 kmh NNE 13.0 mph20.9 kmh 30.00 in1015.9 mb 0.00 in0.0 mm 0.00 in0.0 mm 0.00 in0.0 mm
10:23 AM 78.3°F25.7°C 61.7°F16.5°C 57% 6.9 mph NE11.1 kmh NE 12.1 mph19.5 kmh 29.99 in1015.6 mb 0.00 in0.0 mm 0.00 in0.0 mm 0.00 in0.0 mm
10:28 AM 77.9°F25.5°C 61.9°F16.6°C 58% 8.9 mph NNE14.3 kmh NNE 16.1 mph25.9 kmh 29.99 in1015.6 mb 0.00 in0.0 mm 0.00 in0.0 mm 0.00 in0.0 mm
10:33 AM 78.3°F25.7°C 61.3°F16.3°C 56% 8.9 mph NNE14.3 kmh NNE 14.1 mph22.7 kmh 29.99 in1015.6 mb 0.00 in0.0 mm 0.00 in0.0 mm 0.00 in0.0 mm
10:38 AM 78.3°F25.7°C 61.7°F16.5°C 57% 8.1 mph NNW13.0 kmh NNW 13.0 mph20.9 kmh 29.99 in1015.6 mb 0.00 in0.0 mm 0.00 in0.0 mm 0.00 in0.0 mm
10:43 AM 78.4°F25.8°C 62.4°F16.9°C 58% 8.1 mph NNE13.0 kmh NNE 13.0 mph20.9 kmh 29.99 in1015.6 mb 0.00 in0.0 mm 0.00 in0.0 mm 0.00 in0.0 mm
10:48 AM 78.3°F25.7°C 62.8°F17.1°C 59% 8.1 mph NNE13.0 kmh NNE 14.1 mph22.7 kmh 29.99 in1015.6 mb 0.00 in0.0 mm 0.00 in0.0 mm 0.00 in0.0 mm
10:53 AM 78.1°F25.6°C 63.5°F17.5°C 61% 8.9 mph NE14.3 kmh NE 14.1 mph22.7 kmh 29.99 in1015.6 mb 0.00 in0.0 mm 0.00 in0.0 mm 0.00 in0.0 mm
10:58 AM 78.1°F25.6°C 63.1°F17.3°C 60% 8.9 mph NE14.3 kmh NE 15.0 mph24.1 kmh 29.99 in1015.6 mb 0.00 in0.0 mm 0.00 in0.0 mm 0.00 in0.0 mm
11:03 AM 78.3°F25.7°C 62.8°F17.1°C 59% 8.1 mph NE13.0 kmh NE 13.0 mph20.9 kmh 30.00 in1015.9 mb 0.00 in0.0 mm 0.00 in0.0 mm 0.00 in0.0 mm
11:08 AM 78.1°F25.6°C 62.1°F16.7°C 58% 8.1 mph N13.0 kmh N 15.0 mph24.1 kmh 30.00 in1015.9 mb 0.00 in0.0 mm 0.00 in0.0 mm 0.00 in0.0 mm
11:13 AM 77.7°F25.4°C 61.7°F16.5°C 58% 8.9 mph NNE14.3 kmh NNE 17.0 mph27.4 kmh 30.00 in1015.9 mb 0.00 in0.0 mm 0.00 in0.0 mm 0.00 in0.0 mm
11:18 AM 78.1°F25.6°C 62.6°F17.0°C 59% 10.1 mph NNE16.3 kmh NNE 17.0 mph27.4 kmh 30.00 in1015.9 mb 0.00 in0.0 mm 0.00 in0.0 mm 0.00 in0.0 mm
11:23 AM 78.3°F25.7°C 62.8°F17.1°C 59% 8.9 mph N14.3 kmh N 14.1 mph22.7 kmh 30.00 in1015.9 mb 0.00 in0.0 mm 0.00 in0.0 mm 0.00 in0.0 mm
11:28 AM 78.4°F25.8°C 61.9°F16.6°C 57% 8.9 mph NNW14.3 kmh NNW 13.0 mph20.9 kmh 29.99 in1015.6 mb 0.00 in0.0 mm 0.00 in0.0 mm 0.00 in0.0 mm
11:33 AM 78.8°F26.0°C 62.8°F17.1°C 58% 8.1 mph N13.0 kmh N 14.0 mph22.5 kmh 29.99 in1015.6 mb 0.00 in0.0 mm 0.00 in0.0 mm 0.00 in0.0 mm
11:38 AM 78.6°F25.9°C 62.1°F16.7°C 57% 8.9 mph N14.3 kmh N 14.1 mph22.7 kmh 29.99 in1015.6 mb 0.00 in0.0 mm 0.00 in0.0 mm 0.00 in0.0 mm
11:43 AM 78.8°F26.0°C 62.8°F17.1°C 58% 8.9 mph N14.3 kmh N 14.1 mph22.7 kmh 29.99 in1015.6 mb 0.00 in0.0 mm 0.00 in0.0 mm 0.00 in0.0 mm
11:48 AM 78.8°F26.0°C 63.3°F17.4°C 59% 8.1 mph N13.0 kmh N 14.1 mph22.7 kmh 29.99 in1015.6 mb 0.00 in0.0 mm 0.00 in0.0 mm 0.00 in0.0 mm
11:53 AM 78.4°F25.8°C 63.3°F17.4°C 60% 8.9 mph NE14.3 kmh NE 16.0 mph25.7 kmh 29.99 in1015.6 mb 0.00 in0.0 mm 0.00 in0.0 mm 0.00 in0.0 mm
11:58 AM 78.6°F25.9°C 63.1°F17.3°C 59% 10.1 mph N16.3 kmh N 16.1 mph25.9 kmh 29.99 in1015.6 mb 0.00 in0.0 mm 0.00 in0.0 mm 0.00 in0.0 mm
12:03 PM 78.4°F25.8°C 63.0°F17.2°C 59% 10.1 mph NNE16.3 kmh NNE 16.1 mph25.9 kmh 29.99 in1015.6 mb 0.00 in0.0 mm 0.00 in0.0 mm 0.00 in0.0 mm
12:08 PM 79.0°F26.1°C 62.4°F16.9°C 57% 10.1 mph NE16.3 kmh NE 15.0 mph24.1 kmh 29.99 in1015.6 mb 0.00 in0.0 mm 0.00 in0.0 mm 0.00 in0.0 mm
12:13 PM 78.6°F25.9°C 61.2°F16.2°C 55% 10.1 mph NNE16.3 kmh NNE 17.0 mph27.4 kmh 29.99 in1015.6 mb 0.00 in0.0 mm 0.00 in0.0 mm 0.00 in0.0 mm
12:18 PM 79.0°F26.1°C 61.5°F16.4°C 55% 10.1 mph N16.3 kmh N 16.1 mph25.9 kmh 29.99 in1015.6 mb 0.00 in0.0 mm 0.00 in0.0 mm 0.00 in0.0 mm
12:23 PM 78.8°F26.0°C 61.3°F16.3°C 55% 10.1 mph NNE16.3 kmh NNE 16.1 mph25.9 kmh 29.99 in1015.6 mb 0.00 in0.0 mm 0.00 in0.0 mm 0.00 in0.0 mm
12:28 PM 79.2°F26.2°C 61.5°F16.4°C 55% 10.1 mph N16.3 kmh N 15.0 mph24.1 kmh 29.99 in1015.6 mb 0.00 in0.0 mm 0.00 in0.0 mm 0.00 in0.0 mm
12:33 PM 79.3°F26.3°C 61.2°F16.2°C 54% 8.9 mph NNE14.3 kmh NNE 15.0 mph24.1 kmh 29.99 in1015.6 mb 0.00 in0.0 mm 0.00 in0.0 mm 0.00 in0.0 mm
12:38 PM 79.2°F26.2°C 60.6°F15.9°C 53% 8.9 mph N14.3 kmh N 17.9 mph28.8 kmh 29.99 in1015.6 mb 0.00 in0.0 mm 0.00 in0.0 mm 0.00 in0.0 mm
12:43 PM 79.3°F26.3°C 61.7°F16.5°C 55% 8.9 mph N14.3 kmh N 17.9 mph28.8 kmh 29.99 in1015.6 mb 0.00 in0.0 mm 0.00 in0.0 mm 0.00 in0.0 mm
12:48 PM 79.2°F26.2°C 62.6°F17.0°C 57% 10.1 mph N16.3 kmh N 16.1 mph25.9 kmh 29.99 in1015.6 mb 0.00 in0.0 mm 0.00 in0.0 mm 0.00 in0.0 mm
12:53 PM 79.0°F26.1°C 62.4°F16.9°C 57% 11.0 mph N17.7 kmh N 17.0 mph27.4 kmh 29.99 in1015.6 mb 0.00 in0.0 mm 0.00 in0.0 mm 0.00 in0.0 mm
12:58 PM 79.2°F26.2°C 62.6°F17.0°C 57% 10.1 mph N16.3 kmh N 16.1 mph25.9 kmh 29.99 in1015.6 mb 0.00 in0.0 mm 0.00 in0.0 mm 0.00 in0.0 mm
01:03 PM 79.3°F26.3°C 64.2°F17.9°C 60% 8.9 mph N14.3 kmh N 16.1 mph25.9 kmh 29.99 in1015.6 mb 0.00 in0.0 mm 0.00 in0.0 mm 0.00 in0.0 mm
01:08 PM 79.2°F26.2°C 64.6°F18.1°C 61% 8.9 mph N14.3 kmh N 16.1 mph25.9 kmh 29.98 in1015.2 mb 0.00 in0.0 mm 0.00 in0.0 mm 0.00 in0.0 mm
01:13 PM 79.0°F26.1°C 63.0°F17.2°C 58% 10.1 mph NNE16.3 kmh NNE 16.1 mph25.9 kmh 29.98 in1015.2 mb 0.00 in0.0 mm 0.00 in0.0 mm 0.00 in0.0 mm
01:18 PM 79.5°F26.4°C 64.9°F18.3°C 61% 8.9 mph NNE14.3 kmh NNE 14.1 mph22.7 kmh 29.98 in1015.2 mb 0.00 in0.0 mm 0.00 in0.0 mm 0.00 in0.0 mm
01:23 PM 79.3°F26.3°C 64.8°F18.2°C 61% 8.9 mph N14.3 kmh N 15.0 mph24.1 kmh 29.98 in1015.2 mb 0.00 in0.0 mm 0.00 in0.0 mm 0.00 in0.0 mm
01:28 PM 79.2°F26.2°C 64.6°F18.1°C 61% 8.9 mph NE14.3 kmh NE 16.1 mph25.9 kmh 29.98 in1015.2 mb 0.00 in0.0 mm 0.00 in0.0 mm 0.00 in0.0 mm
01:33 PM 79.2°F26.2°C 64.9°F18.3°C 62% 8.9 mph NE14.3 kmh NE 14.1 mph22.7 kmh 29.98 in1015.2 mb 0.00 in0.0 mm 0.00 in0.0 mm 0.00 in0.0 mm
01:38 PM 79.5°F26.4°C 64.9°F18.3°C 61% 8.9 mph 14.3 kmh 14.1 mph22.7 kmh 29.98 in1015.2 mb 0.00 in0.0 mm 0.00 in0.0 mm 0.00 in0.0 mm
01:43 PM 79.3°F26.3°C 64.2°F17.9°C 60% 8.1 mph N13.0 kmh N 15.0 mph24.1 kmh 29.98 in1015.2 mb 0.00 in0.0 mm 0.00 in0.0 mm 0.00 in0.0 mm
01:48 PM 79.3°F26.3°C 64.8°F18.2°C 61% 8.9 mph NE14.3 kmh NE 16.1 mph25.9 kmh 29.98 in1015.2 mb 0.00 in0.0 mm 0.00 in0.0 mm 0.00 in0.0 mm
01:53 PM 79.3°F26.3°C 64.2°F17.9°C 60% 8.9 mph NE14.3 kmh NE 13.0 mph20.9 kmh 29.98 in1015.2 mb 0.00 in0.0 mm 0.00 in0.0 mm 0.00 in0.0 mm
01:58 PM 79.3°F26.3°C 63.7°F17.6°C 59% 8.9 mph 14.3 kmh 16.1 mph25.9 kmh 29.98 in1015.2 mb 0.00 in0.0 mm 0.00 in0.0 mm 0.00 in0.0 mm
02:03 PM 79.5°F26.4°C 63.0°F17.2°C 57% 8.9 mph N14.3 kmh N 17.0 mph27.4 kmh 29.98 in1015.2 mb 0.00 in0.0 mm 0.00 in0.0 mm 0.00 in0.0 mm
02:08 PM 79.9°F26.6°C 63.3°F17.4°C 57% 8.1 mph N13.0 kmh N 15.0 mph24.1 kmh 29.98 in1015.2 mb 0.00 in0.0 mm 0.00 in0.0 mm 0.00 in0.0 mm
02:13 PM 79.9°F26.6°C 63.3°F17.4°C 57% 8.9 mph NNE14.3 kmh NNE 16.1 mph25.9 kmh 29.98 in1015.2 mb 0.00 in0.0 mm 0.00 in0.0 mm 0.00 in0.0 mm
02:18 PM 79.9°F26.6°C 61.7°F16.5°C 54% 8.9 mph NE14.3 kmh NE 14.1 mph22.7 kmh 29.98 in1015.2 mb 0.00 in0.0 mm 0.00 in0.0 mm 0.00 in0.0 mm
02:23 PM 80.2°F26.8°C 63.1°F17.3°C 56% 8.1 mph NE13.0 kmh NE 14.1 mph22.7 kmh 29.98 in1015.2 mb 0.00 in0.0 mm 0.00 in0.0 mm 0.00 in0.0 mm
02:28 PM 80.4°F26.9°C 63.3°F17.4°C 56% 8.9 mph NNE14.3 kmh NNE 14.1 mph22.7 kmh 29.98 in1015.2 mb 0.00 in0.0 mm 0.00 in0.0 mm 0.00 in0.0 mm
02:33 PM 80.2°F26.8°C 62.1°F16.7°C 54% 10.1 mph 16.3 kmh 17.9 mph28.8 kmh 29.97 in1014.9 mb 0.00 in0.0 mm 0.00 in0.0 mm 0.00 in0.0 mm
02:38 PM 80.2°F26.8°C 62.6°F17.0°C 55% 11.0 mph NE17.7 kmh NE 17.0 mph27.4 kmh 29.97 in1014.9 mb 0.00 in0.0 mm 0.00 in0.0 mm 0.00 in0.0 mm
02:43 PM 80.1°F26.7°C 61.9°F16.6°C 54% 12.1 mph NNE19.5 kmh NNE 17.9 mph28.8 kmh 29.98 in1015.2 mb 0.00 in0.0 mm 0.00 in0.0 mm 0.00 in0.0 mm
02:48 PM 80.1°F26.7°C 61.9°F16.6°C 54% 11.0 mph NE17.7 kmh NE 14.1 mph22.7 kmh 29.98 in1015.2 mb 0.00 in0.0 mm 0.00 in0.0 mm 0.00 in0.0 mm
02:53 PM 79.9°F26.6°C 64.2°F17.9°C 59% 10.1 mph NE16.3 kmh NE 15.0 mph24.1 kmh 29.98 in1015.2 mb 0.00 in0.0 mm 0.00 in0.0 mm 0.00 in0.0 mm
02:58 PM 79.9°F26.6°C 64.8°F18.2°C 60% 10.1 mph N16.3 kmh N 15.0 mph24.1 kmh 29.97 in1014.9 mb 0.00 in0.0 mm 0.00 in0.0 mm 0.00 in0.0 mm
03:03 PM 80.1°F26.7°C 64.9°F18.3°C 60% 8.9 mph NE14.3 kmh NE 16.1 mph25.9 kmh 29.98 in1015.2 mb 0.00 in0.0 mm 0.00 in0.0 mm 0.00 in0.0 mm
03:08 PM 79.7°F26.5°C 64.6°F18.1°C 60% 8.9 mph NNE14.3 kmh NNE 15.0 mph24.1 kmh 29.98 in1015.2 mb 0.00 in0.0 mm 0.00 in0.0 mm 0.00 in0.0 mm
03:13 PM 79.9°F26.6°C 65.7°F18.7°C 62% 10.1 mph NNE16.3 kmh NNE 14.1 mph22.7 kmh 29.98 in1015.2 mb 0.00 in0.0 mm 0.00 in0.0 mm 0.00 in0.0 mm
03:18 PM 79.5°F26.4°C 64.9°F18.3°C 61% 10.1 mph N16.3 kmh N 15.0 mph24.1 kmh 29.98 in1015.2 mb 0.00 in0.0 mm 0.00 in0.0 mm 0.00 in0.0 mm
03:23 PM 79.5°F26.4°C 64.9°F18.3°C 61% 8.9 mph NNE14.3 kmh NNE 14.1 mph22.7 kmh 29.97 in1014.9 mb 0.00 in0.0 mm 0.00 in0.0 mm 0.00 in0.0 mm
03:28 PM 79.7°F26.5°C 65.5°F18.6°C 62% 8.1 mph N13.0 kmh N 13.0 mph20.9 kmh 29.97 in1014.9 mb 0.00 in0.0 mm 0.00 in0.0 mm 0.00 in0.0 mm
03:33 PM 79.7°F26.5°C 65.1°F18.4°C 61% 8.1 mph NE13.0 kmh NE 14.1 mph22.7 kmh 29.98 in1015.2 mb 0.00 in0.0 mm 0.00 in0.0 mm 0.00 in0.0 mm
03:38 PM 79.5°F26.4°C 65.3°F18.5°C 62% 8.9 mph NNE14.3 kmh NNE 15.0 mph24.1 kmh 29.97 in1014.9 mb 0.00 in0.0 mm 0.00 in0.0 mm 0.00 in0.0 mm
03:43 PM 79.5°F26.4°C 65.3°F18.5°C 62% 8.9 mph NNE14.3 kmh NNE 13.0 mph20.9 kmh 29.97 in1014.9 mb 0.00 in0.0 mm 0.00 in0.0 mm 0.00 in0.0 mm
03:48 PM 79.3°F26.3°C 64.8°F18.2°C 61% 8.9 mph NE14.3 kmh NE 14.1 mph22.7 kmh 29.97 in1014.9 mb 0.00 in0.0 mm 0.00 in0.0 mm 0.00 in0.0 mm
03:53 PM 79.5°F26.4°C 64.4°F18.0°C 60% 8.9 mph NNE14.3 kmh NNE 14.1 mph22.7 kmh 29.98 in1015.2 mb 0.00 in0.0 mm 0.00 in0.0 mm 0.00 in0.0 mm
03:58 PM 79.3°F26.3°C 64.2°F17.9°C 60% 8.9 mph NE14.3 kmh NE 16.1 mph25.9 kmh 29.97 in1014.9 mb 0.00 in0.0 mm 0.00 in0.0 mm 0.00 in0.0 mm
04:03 PM 79.2°F26.2°C 64.9°F18.3°C 62% 10.1 mph NE16.3 kmh NE 16.1 mph25.9 kmh 29.98 in1015.2 mb 0.00 in0.0 mm 0.00 in0.0 mm 0.00 in0.0 mm
04:08 PM 79.2°F26.2°C 65.8°F18.8°C 64% 10.1 mph N16.3 kmh N 15.0 mph24.1 kmh 29.98 in1015.2 mb 0.00 in0.0 mm 0.00 in0.0 mm 0.00 in0.0 mm
04:13 PM 79.0°F26.1°C 65.8°F18.8°C 64% 10.1 mph NNE16.3 kmh NNE 14.1 mph22.7 kmh 29.97 in1014.9 mb 0.00 in0.0 mm 0.00 in0.0 mm 0.00 in0.0 mm
04:18 PM 78.8°F26.0°C 65.1°F18.4°C 63% 10.1 mph NE16.3 kmh NE 14.1 mph22.7 kmh 29.97 in1014.9 mb 0.00 in0.0 mm 0.00 in0.0 mm 0.00 in0.0 mm
04:23 PM 78.6°F25.9°C 64.9°F18.3°C 63% 10.1 mph NNE16.3 kmh NNE 16.1 mph25.9 kmh 29.97 in1014.9 mb 0.00 in0.0 mm 0.00 in0.0 mm 0.00 in0.0 mm
04:28 PM 78.6°F25.9°C 64.9°F18.3°C 63% 10.1 mph NNE16.3 kmh NNE 15.0 mph24.1 kmh 29.98 in1015.2 mb 0.00 in0.0 mm 0.00 in0.0 mm 0.00 in0.0 mm
04:33 PM 78.6°F25.9°C 64.9°F18.3°C 63% 10.1 mph NE16.3 kmh NE 16.1 mph25.9 kmh 29.97 in1014.9 mb 0.00 in0.0 mm 0.00 in0.0 mm 0.00 in0.0 mm
04:38 PM 78.6°F25.9°C 64.9°F18.3°C 63% 10.1 mph NE16.3 kmh NE 17.9 mph28.8 kmh 29.97 in1014.9 mb 0.00 in0.0 mm 0.00 in0.0 mm 0.00 in0.0 mm
04:43 PM 78.8°F26.0°C 65.1°F18.4°C 63% 8.1 mph NE13.0 kmh NE 14.1 mph22.7 kmh 29.97 in1014.9 mb 0.00 in0.0 mm 0.00 in0.0 mm 0.00 in0.0 mm
04:48 PM 78.6°F25.9°C 65.5°F18.6°C 64% 8.9 mph N14.3 kmh N 15.0 mph24.1 kmh 29.97 in1014.9 mb 0.00 in0.0 mm 0.00 in0.0 mm 0.00 in0.0 mm
04:53 PM 78.8°F26.0°C 65.7°F18.7°C 64% 10.1 mph NE16.3 kmh NE 14.1 mph22.7 kmh 29.97 in1014.9 mb 0.00 in0.0 mm 0.00 in0.0 mm 0.00 in0.0 mm
04:58 PM 79.0°F26.1°C 64.8°F18.2°C 62% 8.9 mph NE14.3 kmh NE 12.1 mph19.5 kmh 29.97 in1014.9 mb 0.00 in0.0 mm 0.00 in0.0 mm 0.00 in0.0 mm
05:03 PM 79.0°F26.1°C 64.8°F18.2°C 62% 8.1 mph NE13.0 kmh NE 14.1 mph22.7 kmh 29.97 in1014.9 mb 0.00 in0.0 mm 0.00 in0.0 mm 0.00 in0.0 mm
05:08 PM 79.0°F26.1°C 64.4°F18.0°C 61% 8.1 mph NE13.0 kmh NE 14.1 mph22.7 kmh 29.97 in1014.9 mb 0.00 in0.0 mm 0.00 in0.0 mm 0.00 in0.0 mm
05:13 PM 79.0°F26.1°C 63.9°F17.7°C 60% 8.9 mph NE14.3 kmh NE 16.1 mph25.9 kmh 29.96 in1014.6 mb 0.00 in0.0 mm 0.00 in0.0 mm 0.00 in0.0 mm
05:18 PM 79.0°F26.1°C 63.9°F17.7°C 60% 8.9 mph 14.3 kmh 16.1 mph25.9 kmh 29.96 in1014.6 mb 0.00 in0.0 mm 0.00 in0.0 mm 0.00 in0.0 mm
05:23 PM 79.0°F26.1°C 63.9°F17.7°C 60% 8.9 mph NE14.3 kmh NE 17.0 mph27.4 kmh 29.96 in1014.6 mb 0.00 in0.0 mm 0.00 in0.0 mm 0.00 in0.0 mm
05:28 PM 79.0°F26.1°C 63.9°F17.7°C 60% 8.9 mph NE14.3 kmh NE 14.1 mph22.7 kmh 29.96 in1014.6 mb 0.00 in0.0 mm 0.00 in0.0 mm 0.00 in0.0 mm
05:33 PM 78.8°F26.0°C 62.8°F17.1°C 58% 8.9 mph N14.3 kmh N 16.1 mph25.9 kmh 29.96 in1014.6 mb 0.00 in0.0 mm 0.00 in0.0 mm 0.00 in0.0 mm
05:38 PM 79.0°F26.1°C 63.5°F17.5°C 59% 8.1 mph NNE13.0 kmh NNE 12.1 mph19.5 kmh 29.96 in1014.6 mb 0.00 in0.0 mm 0.00 in0.0 mm 0.00 in0.0 mm
05:43 PM 78.8°F26.0°C 63.3°F17.4°C 59% 8.1 mph NNE13.0 kmh NNE 14.1 mph22.7 kmh 29.96 in1014.6 mb 0.00 in0.0 mm 0.00 in0.0 mm 0.00 in0.0 mm
05:48 PM 78.8°F26.0°C 62.8°F17.1°C 58% 8.9 mph NNE14.3 kmh NNE 12.1 mph19.5 kmh 29.96 in1014.6 mb 0.00 in0.0 mm 0.00 in0.0 mm 0.00 in0.0 mm
05:53 PM 78.8°F26.0°C 63.3°F17.4°C 59% 6.9 mph NE11.1 kmh NE 12.1 mph19.5 kmh 29.96 in1014.6 mb 0.00 in0.0 mm 0.00 in0.0 mm 0.00 in0.0 mm
05:58 PM 78.6°F25.9°C 60.6°F15.9°C 54% 8.1 mph NE13.0 kmh NE 15.0 mph24.1 kmh 29.96 in1014.6 mb 0.00 in0.0 mm 0.00 in0.0 mm 0.00 in0.0 mm
06:03 PM 78.6°F25.9°C 61.2°F16.2°C 55% 8.9 mph 14.3 kmh 13.0 mph20.9 kmh 29.96 in1014.6 mb 0.00 in0.0 mm 0.00 in0.0 mm 0.00 in0.0 mm
06:08 PM 78.6°F25.9°C 62.1°F16.7°C 57% 8.1 mph N13.0 kmh N 13.0 mph20.9 kmh 29.96 in1014.6 mb 0.00 in0.0 mm 0.00 in0.0 mm 0.00 in0.0 mm
06:13 PM 78.6°F25.9°C 62.1°F16.7°C 57% 6.9 mph NNE11.1 kmh NNE 14.1 mph22.7 kmh 29.96 in1014.6 mb 0.00 in0.0 mm 0.00 in0.0 mm 0.00 in0.0 mm
06:18 PM 78.4°F25.8°C 61.5°F16.4°C 56% 6.9 mph N11.1 kmh N 12.1 mph19.5 kmh 29.96 in1014.6 mb 0.00 in0.0 mm 0.00 in0.0 mm 0.00 in0.0 mm
06:23 PM 78.4°F25.8°C 61.5°F16.4°C 56% 8.1 mph NW13.0 kmh NW 11.0 mph17.7 kmh 29.96 in1014.6 mb 0.00 in0.0 mm 0.00 in0.0 mm 0.00 in0.0 mm
06:28 PM 78.3°F25.7°C 61.3°F16.3°C 56% 8.1 mph 13.0 kmh 11.0 mph17.7 kmh 29.96 in1014.6 mb 0.00 in0.0 mm 0.00 in0.0 mm 0.00 in0.0 mm
06:33 PM 78.1°F25.6°C 61.5°F16.4°C 57% 6.9 mph N11.1 kmh N 10.1 mph16.3 kmh 29.96 in1014.6 mb 0.00 in0.0 mm 0.00 in0.0 mm 0.00 in0.0 mm
06:38 PM 77.9°F25.5°C 61.0°F16.1°C 56% 6.9 mph NNE11.1 kmh NNE 12.1 mph19.5 kmh 29.96 in1014.6 mb 0.00 in0.0 mm 0.00 in0.0 mm 0.00 in0.0 mm
06:43 PM 77.7°F25.4°C 60.8°F16.0°C 56% 6.9 mph NE11.1 kmh NE 12.1 mph19.5 kmh 29.96 in1014.6 mb 0.00 in0.0 mm 0.00 in0.0 mm 0.00 in0.0 mm
06:48 PM 77.7°F25.4°C 60.8°F16.0°C 56% 6.0 mph N9.7 kmh N 10.1 mph16.3 kmh 29.96 in1014.6 mb 0.00 in0.0 mm 0.00 in0.0 mm 0.00 in0.0 mm
06:53 PM 77.5°F25.3°C 60.1°F15.6°C 55% 6.0 mph N9.7 kmh N 11.0 mph17.7 kmh 29.97 in1014.9 mb 0.00 in0.0 mm 0.00 in0.0 mm 0.00 in0.0 mm
06:58 PM 77.5°F25.3°C 59.0°F15.0°C 53% 6.0 mph N9.7 kmh N 11.0 mph17.7 kmh 29.97 in1014.9 mb 0.00 in0.0 mm 0.00 in0.0 mm 0.00 in0.0 mm
07:03 PM 77.7°F25.4°C 57.0°F13.9°C 49% 6.0 mph N9.7 kmh N 11.0 mph17.7 kmh 29.97 in1014.9 mb 0.00 in0.0 mm 0.00 in0.0 mm 0.00 in0.0 mm
07:08 PM 77.9°F25.5°C 56.1°F13.4°C 47% 4.9 mph N7.9 kmh N 10.1 mph16.3 kmh 29.97 in1014.9 mb 0.00 in0.0 mm 0.00 in0.0 mm 0.00 in0.0 mm
07:13 PM 77.9°F25.5°C 54.9°F12.7°C 45% 4.9 mph N7.9 kmh N 10.1 mph16.3 kmh 29.97 in1014.9 mb 0.00 in0.0 mm 0.00 in0.0 mm 0.00 in0.0 mm
07:18 PM 77.7°F25.4°C 54.7°F12.6°C 45% 4.9 mph 7.9 kmh 8.9 mph14.3 kmh 29.97 in1014.9 mb 0.00 in0.0 mm 0.00 in0.0 mm 0.00 in0.0 mm
07:23 PM 77.5°F25.3°C 54.5°F12.5°C 45% 4.9 mph NNE7.9 kmh NNE 8.9 mph14.3 kmh 29.97 in1014.9 mb 0.00 in0.0 mm 0.00 in0.0 mm 0.00 in0.0 mm
07:28 PM 77.4°F25.2°C 53.8°F12.1°C 44% 4.0 mph N6.4 kmh N 8.1 mph13.0 kmh 29.97 in1014.9 mb 0.00 in0.0 mm 0.00 in0.0 mm 0.00 in0.0 mm
07:33 PM 77.2°F25.1°C 52.9°F11.6°C 43% 4.0 mph NW6.4 kmh NW 8.1 mph13.0 kmh 29.97 in1014.9 mb 0.00 in0.0 mm 0.00 in0.0 mm 0.00 in0.0 mm
07:38 PM 77.0°F25.0°C 53.4°F11.9°C 44% 2.0 mph WNW3.2 kmh WNW 2.9 mph4.7 kmh 29.98 in1015.2 mb 0.00 in0.0 mm 0.00 in0.0 mm 0.00 in0.0 mm
07:43 PM 76.6°F24.8°C 53.1°F11.7°C 44% 0.9 mph WNW1.4 kmh WNW 4.0 mph6.4 kmh 29.97 in1014.9 mb 0.00 in0.0 mm 0.00 in0.0 mm 0.00 in0.0 mm
07:48 PM 76.6°F24.8°C 53.1°F11.7°C 44% 0.9 mph NW1.4 kmh NW 4.0 mph6.4 kmh 29.97 in1014.9 mb 0.00 in0.0 mm 0.00 in0.0 mm 0.00 in0.0 mm
07:53 PM 76.5°F24.7°C 52.9°F11.6°C 44% 0.9 mph NW1.4 kmh NW 2.9 mph4.7 kmh 29.98 in1015.2 mb 0.00 in0.0 mm 0.00 in0.0 mm 0.00 in0.0 mm
07:58 PM 76.5°F24.7°C 52.9°F11.6°C 44% 0.9 mph NW1.4 kmh NW 4.0 mph6.4 kmh 29.98 in1015.2 mb 0.00 in0.0 mm 0.00 in0.0 mm 0.00 in0.0 mm
08:03 PM 76.3°F24.6°C 53.4°F11.9°C 45% 0.9 mph NW1.4 kmh NW 4.0 mph6.4 kmh 29.98 in1015.2 mb 0.00 in0.0 mm 0.00 in0.0 mm 0.00 in0.0 mm
08:08 PM 76.3°F24.6°C 52.7°F11.5°C 44% 2.0 mph NW3.2 kmh NW 4.0 mph6.4 kmh 29.98 in1015.2 mb 0.00 in0.0 mm 0.00 in0.0 mm 0.00 in0.0 mm
08:13 PM 76.3°F24.6°C 52.7°F11.5°C 44% 2.0 mph NW3.2 kmh NW 4.0 mph6.4 kmh 29.98 in1015.2 mb 0.00 in0.0 mm 0.00 in0.0 mm 0.00 in0.0 mm
08:18 PM 76.3°F24.6°C 53.4°F11.9°C 45% 0.9 mph NW1.4 kmh NW 2.9 mph4.7 kmh 29.98 in1015.2 mb 0.00 in0.0 mm 0.00 in0.0 mm 0.00 in0.0 mm
08:23 PM 75.9°F24.4°C 53.1°F11.7°C 45% 0.9 mph NW1.4 kmh NW 2.9 mph4.7 kmh 29.98 in1015.2 mb 0.00 in0.0 mm 0.00 in0.0 mm 0.00 in0.0 mm
08:28 PM 75.9°F24.4°C 53.6°F12.0°C 46% 0.9 mph NW1.4 kmh NW 2.9 mph4.7 kmh 29.98 in1015.2 mb 0.00 in0.0 mm 0.00 in0.0 mm 0.00 in0.0 mm
08:33 PM 75.9°F24.4°C 54.3°F12.4°C 47% 2.0 mph NW3.2 kmh NW 4.0 mph6.4 kmh 29.98 in1015.2 mb 0.00 in0.0 mm 0.00 in0.0 mm 0.00 in0.0 mm
08:38 PM 75.7°F24.3°C 54.1°F12.3°C 47% 2.0 mph NW3.2 kmh NW 2.9 mph4.7 kmh 29.98 in1015.2 mb 0.00 in0.0 mm 0.00 in0.0 mm 0.00 in0.0 mm
08:43 PM 75.9°F24.4°C 54.3°F12.4°C 47% 0.9 mph NW1.4 kmh NW 4.0 mph6.4 kmh 29.98 in1015.2 mb 0.00 in0.0 mm 0.00 in0.0 mm 0.00 in0.0 mm
08:48 PM 75.9°F24.4°C 54.9°F12.7°C 48% 2.0 mph W3.2 kmh W 4.0 mph6.4 kmh 29.98 in1015.2 mb 0.00 in0.0 mm 0.00 in0.0 mm 0.00 in0.0 mm
08:53 PM 75.9°F24.4°C 54.9°F12.7°C 48% 2.0 mph WNW3.2 kmh WNW 8.1 mph13.0 kmh 29.98 in1015.2 mb 0.00 in0.0 mm 0.00 in0.0 mm 0.00 in0.0 mm
08:58 PM 75.9°F24.4°C 54.3°F12.4°C 47% 2.9 mph WNW4.7 kmh WNW 6.0 mph9.7 kmh 29.98 in1015.2 mb 0.00 in0.0 mm 0.00 in0.0 mm 0.00 in0.0 mm
09:03 PM 75.9°F24.4°C 54.9°F12.7°C 48% 2.9 mph NW4.7 kmh NW 7.0 mph11.3 kmh 29.98 in1015.2 mb 0.00 in0.0 mm 0.00 in0.0 mm 0.00 in0.0 mm
09:08 PM 75.9°F24.4°C 55.4°F13.0°C 49% 2.9 mph W4.7 kmh W 4.0 mph6.4 kmh 29.98 in1015.2 mb 0.00 in0.0 mm 0.00 in0.0 mm 0.00 in0.0 mm
09:13 PM 75.9°F24.4°C 55.9°F13.3°C 50% 2.9 mph WNW4.7 kmh WNW 6.9 mph11.1 kmh 29.98 in1015.2 mb 0.00 in0.0 mm 0.00 in0.0 mm 0.00 in0.0 mm
09:18 PM 75.9°F24.4°C 56.5°F13.6°C 51% 4.0 mph W6.4 kmh W 6.9 mph11.1 kmh 29.98 in1015.2 mb 0.00 in0.0 mm 0.00 in0.0 mm 0.00 in0.0 mm
09:23 PM 75.9°F24.4°C 57.0°F13.9°C 52% 4.0 mph NW6.4 kmh NW 6.9 mph11.1 kmh 29.98 in1015.2 mb 0.00 in0.0 mm 0.00 in0.0 mm 0.00 in0.0 mm
09:28 PM 75.7°F24.3°C 57.4°F14.1°C 53% 2.9 mph W4.7 kmh W 8.1 mph13.0 kmh 29.98 in1015.2 mb 0.00 in0.0 mm 0.00 in0.0 mm 0.00 in0.0 mm
09:33 PM 75.7°F24.3°C 57.4°F14.1°C 53% 2.9 mph NW4.7 kmh NW 4.0 mph6.4 kmh 29.98 in1015.2 mb 0.00 in0.0 mm 0.00 in0.0 mm 0.00 in0.0 mm
09:38 PM 75.6°F24.2°C 57.7°F14.3°C 54% 2.9 mph NW4.7 kmh NW 6.0 mph9.7 kmh 29.98 in1015.2 mb 0.00 in0.0 mm 0.00 in0.0 mm 0.00 in0.0 mm
09:43 PM 75.4°F24.1°C 57.6°F14.2°C 54% 2.0 mph NW3.2 kmh NW 6.0 mph9.7 kmh 29.98 in1015.2 mb 0.00 in0.0 mm 0.00 in0.0 mm 0.00 in0.0 mm
09:48 PM 75.4°F24.1°C 57.6°F14.2°C 54% 2.0 mph W3.2 kmh W 6.0 mph9.7 kmh 29.98 in1015.2 mb 0.00 in0.0 mm 0.00 in0.0 mm 0.00 in0.0 mm
09:53 PM 75.2°F24.0°C 57.4°F14.1°C 54% 2.9 mph NW4.7 kmh NW 8.1 mph13.0 kmh 29.98 in1015.2 mb 0.00 in0.0 mm 0.00 in0.0 mm 0.00 in0.0 mm
09:58 PM 75.2°F24.0°C 56.8°F13.8°C 53% 2.9 mph NW4.7 kmh NW 6.9 mph11.1 kmh 29.98 in1015.2 mb 0.00 in0.0 mm 0.00 in0.0 mm 0.00 in0.0 mm
10:03 PM 75.4°F24.1°C 57.0°F13.9°C 53% 2.9 mph NW4.7 kmh NW 6.9 mph11.1 kmh 29.98 in1015.2 mb 0.00 in0.0 mm 0.00 in0.0 mm 0.00 in0.0 mm
10:08 PM 75.2°F24.0°C 56.8°F13.8°C 53% 2.9 mph WNW4.7 kmh WNW 6.9 mph11.1 kmh 29.98 in1015.2 mb 0.00 in0.0 mm 0.00 in0.0 mm 0.00 in0.0 mm
10:13 PM 75.0°F23.9°C 57.2°F14.0°C 54% 2.9 mph WNW4.7 kmh WNW 8.1 mph13.0 kmh 29.98 in1015.2 mb 0.00 in0.0 mm 0.00 in0.0 mm 0.00 in0.0 mm
10:18 PM 74.8°F23.8°C 58.1°F14.5°C 56% 2.9 mph WNW4.7 kmh WNW 6.9 mph11.1 kmh 29.98 in1015.2 mb 0.00 in0.0 mm 0.00 in0.0 mm 0.00 in0.0 mm
10:23 PM 74.3°F23.5°C 58.1°F14.5°C 57% 2.0 mph WNW3.2 kmh WNW 6.0 mph9.7 kmh 29.98 in1015.2 mb 0.00 in0.0 mm 0.00 in0.0 mm 0.00 in0.0 mm
10:28 PM 74.1°F23.4°C 58.5°F14.7°C 58% 2.9 mph WNW4.7 kmh WNW 6.9 mph11.1 kmh 29.98 in1015.2 mb 0.00 in0.0 mm 0.00 in0.0 mm 0.00 in0.0 mm
10:33 PM 73.9°F23.3°C 58.6°F14.8°C 59% 2.9 mph WNW4.7 kmh WNW 6.9 mph11.1 kmh 29.98 in1015.2 mb 0.00 in0.0 mm 0.00 in0.0 mm 0.00 in0.0 mm
10:38 PM 73.8°F23.2°C 59.0°F15.0°C 60% 2.9 mph WNW4.7 kmh WNW 6.9 mph11.1 kmh 29.98 in1015.2 mb 0.00 in0.0 mm 0.00 in0.0 mm 0.00 in0.0 mm
10:43 PM 73.6°F23.1°C 58.8°F14.9°C 60% 2.9 mph W4.7 kmh W 6.9 mph11.1 kmh 29.98 in1015.2 mb 0.00 in0.0 mm 0.00 in0.0 mm 0.00 in0.0 mm
10:48 PM 73.6°F23.1°C 58.8°F14.9°C 60% 2.9 mph WSW4.7 kmh WSW 6.9 mph11.1 kmh 29.98 in1015.2 mb 0.00 in0.0 mm 0.00 in0.0 mm 0.00 in0.0 mm
10:53 PM 73.8°F23.2°C 59.0°F15.0°C 60% 2.9 mph W4.7 kmh W 6.9 mph11.1 kmh 29.98 in1015.2 mb 0.00 in0.0 mm 0.00 in0.0 mm 0.00 in0.0 mm
10:58 PM 73.6°F23.1°C 58.8°F14.9°C 60% 2.9 mph WNW4.7 kmh WNW 6.9 mph11.1 kmh 29.98 in1015.2 mb 0.00 in0.0 mm 0.00 in0.0 mm 0.00 in0.0 mm
11:03 PM 73.6°F23.1°C 58.3°F14.6°C 59% 2.9 mph WNW4.7 kmh WNW 8.9 mph14.3 kmh 29.98 in1015.2 mb 0.00 in0.0 mm 0.00 in0.0 mm 0.00 in0.0 mm
11:08 PM 73.9°F23.3°C 57.7°F14.3°C 57% 2.9 mph W4.7 kmh W 6.0 mph9.7 kmh 29.98 in1015.2 mb 0.00 in0.0 mm 0.00 in0.0 mm 0.00 in0.0 mm
11:13 PM 73.9°F23.3°C 57.7°F14.3°C 57% 4.0 mph W6.4 kmh W 10.1 mph16.3 kmh 29.98 in1015.2 mb 0.00 in0.0 mm 0.00 in0.0 mm 0.00 in0.0 mm
11:18 PM 73.9°F23.3°C 58.3°F14.6°C 58% 4.0 mph WNW6.4 kmh WNW 10.1 mph16.3 kmh 29.98 in1015.2 mb 0.00 in0.0 mm 0.00 in0.0 mm 0.00 in0.0 mm
11:23 PM 73.6°F23.1°C 58.3°F14.6°C 59% 4.0 mph WNW6.4 kmh WNW 6.9 mph11.1 kmh 29.98 in1015.2 mb 0.00 in0.0 mm 0.00 in0.0 mm 0.00 in0.0 mm
11:28 PM 73.2°F22.9°C 58.5°F14.7°C 60% 4.0 mph WNW6.4 kmh WNW 6.9 mph11.1 kmh 29.98 in1015.2 mb 0.00 in0.0 mm 0.00 in0.0 mm 0.00 in0.0 mm
11:33 PM 73.0°F22.8°C 58.8°F14.9°C 61% 4.0 mph NW6.4 kmh NW 8.1 mph13.0 kmh 29.98 in1015.2 mb 0.00 in0.0 mm 0.00 in0.0 mm 0.00 in0.0 mm
11:38 PM 73.0°F22.8°C 58.8°F14.9°C 61% 4.0 mph NW6.4 kmh NW 8.1 mph13.0 kmh 29.98 in1015.2 mb 0.00 in0.0 mm 0.00 in0.0 mm 0.00 in0.0 mm
11:43 PM 72.9°F22.7°C 59.0°F15.0°C 62% 4.0 mph NW6.4 kmh NW 6.9 mph11.1 kmh 29.98 in1015.2 mb 0.00 in0.0 mm 0.00 in0.0 mm 0.00 in0.0 mm
11:48 PM 72.7°F22.6°C 58.8°F14.9°C 62% 2.9 mph NW4.7 kmh NW 6.9 mph11.1 kmh 29.98 in1015.2 mb 0.00 in0.0 mm 0.00 in0.0 mm 0.00 in0.0 mm
11:53 PM 72.7°F22.6°C 58.8°F14.9°C 62% 2.9 mph WNW4.7 kmh WNW 4.9 mph7.9 kmh 29.98 in1015.2 mb 0.00 in0.0 mm 0.00 in0.0 mm 0.00 in0.0 mm
11:58 PM 72.5°F22.5°C 59.2°F15.1°C 63% 4.0 mph W6.4 kmh W 10.1 mph16.3 kmh 29.98 in1015.2 mb 0.00 in0.0 mm 0.00 in0.0 mm 0.00 in0.0 mm